createdAt,value
2023-01-17T06:31:10.393Z,1.65
2023-01-17T06:33:37.604Z,1.75
2023-01-17T06:36:05.175Z,1.73
2023-01-17T06:38:32.693Z,1.70
2023-01-17T06:41:04.202Z,1.80
2023-01-17T06:43:33.781Z,1.73
2023-01-17T06:46:01.667Z,1.52
2023-01-17T06:48:28.890Z,1.85
2023-01-17T06:50:58.039Z,1.67
2023-01-17T06:53:25.620Z,2.08
2023-01-17T06:55:57.028Z,1.38
2023-01-17T06:58:24.614Z,1.67
2023-01-17T07:00:52.184Z,1.67
2023-01-17T07:03:24.432Z,2.08
2023-01-17T07:05:53.174Z,1.65
2023-01-17T07:08:21.046Z,2.80
2023-01-17T07:10:49.193Z,2.30
2023-01-17T07:13:16.653Z,1.85
2023-01-17T07:15:43.965Z,2.15
2023-01-17T07:18:11.278Z,1.60
2023-01-17T07:20:38.859Z,1.77
2023-01-17T07:23:08.206Z,1.80
2023-01-17T07:25:35.769Z,1.77
2023-01-17T07:28:03.189Z,2.53
2023-01-17T07:30:30.905Z,1.80
2023-01-17T07:32:58.265Z,2.05
2023-01-17T07:35:27.032Z,2.08
2023-01-17T07:37:55.105Z,1.75
2023-01-17T07:40:23.144Z,1.55
2023-01-17T07:42:50.936Z,1.90
2023-01-17T07:45:19.468Z,1.90
2023-01-17T07:47:47.825Z,1.83
2023-01-17T07:50:15.770Z,2.03
2023-01-17T07:52:43.262Z,1.70
2023-01-17T07:55:10.930Z,1.27
2023-01-17T07:57:38.768Z,1.67
2023-01-17T08:00:07.685Z,2.05
2023-01-17T08:02:35.770Z,2.20
2023-01-17T08:05:03.761Z,1.92
2023-01-17T08:07:31.051Z,1.55
2023-01-17T08:09:58.518Z,1.90
2023-01-17T08:12:26.120Z,1.85
2023-01-17T08:14:53.473Z,1.88
2023-01-17T08:17:21.751Z,1.50
2023-01-17T08:19:52.194Z,1.95
2023-01-17T08:22:19.690Z,1.77
2023-01-17T08:24:47.495Z,1.98
2023-01-17T08:27:15.283Z,1.98
2023-01-17T08:29:47.071Z,1.75
2023-01-17T08:32:15.211Z,1.75
2023-01-17T08:34:42.523Z,1.63
2023-01-17T08:37:09.881Z,1.42
2023-01-17T08:39:40.635Z,1.73
2023-01-17T08:42:08.043Z,1.90
2023-01-17T08:44:35.601Z,1.88
2023-01-17T08:47:02.907Z,2.13
2023-01-17T08:49:30.290Z,2.15
2023-01-17T08:51:59.644Z,1.92
2023-01-17T08:54:27.256Z,2.58
2023-01-17T08:56:56.696Z,1.75
2023-01-17T08:59:24.931Z,1.52
2023-01-17T09:01:54.572Z,1.90
2023-01-17T09:04:22.889Z,2.15
2023-01-17T09:06:52.212Z,1.42
2023-01-17T09:09:20.419Z,2.67
2023-01-17T09:11:47.887Z,1.30
2023-01-17T09:14:16.608Z,1.48
2023-01-17T09:16:46.161Z,1.52
2023-01-17T09:19:15.214Z,1.75
2023-01-17T09:21:46.152Z,1.52
2023-01-17T09:24:14.147Z,1.48
2023-01-17T09:26:41.862Z,1.38
2023-01-17T09:29:09.938Z,1.20
2023-01-17T09:31:38.344Z,1.35
2023-01-17T09:34:06.207Z,1.40
2023-01-17T09:36:35.698Z,1.20
2023-01-17T09:39:04.087Z,1.20
2023-01-17T09:41:34.481Z,1.25
2023-01-17T09:44:13.658Z,1.00
2023-01-17T09:46:45.792Z,0.57
2023-01-17T09:49:38.299Z,1.03
2023-01-17T09:52:10.050Z,1.05
2023-01-17T09:54:41.463Z,1.08
2023-01-17T09:57:36.354Z,1.38
2023-01-17T10:00:43.710Z,0.55
2023-01-17T10:03:43.980Z,0.77
2023-01-17T10:06:38.619Z,0.65
2023-01-17T10:09:37.657Z,1.10
2023-01-17T10:15:28.513Z,0.73
2023-01-17T10:18:36.611Z,0.60
2023-01-17T10:21:14.504Z,1.10
2023-01-17T10:26:27.574Z,0.82
2023-01-17T10:29:02.667Z,0.90
2023-01-17T10:31:35.663Z,0.75
2023-01-17T10:36:49.944Z,0.40
2023-01-17T10:42:01.232Z,0.50
2023-01-17T10:44:43.525Z,0.63
2023-01-17T10:49:54.375Z,0.55
2023-01-17T10:55:40.350Z,2.15
2023-01-17T10:58:14.981Z,1.05
2023-01-17T11:01:06.929Z,0.82
2023-01-17T11:03:34.980Z,0.47
2023-01-17T11:09:04.055Z,0.77
2023-01-17T11:11:34.524Z,0.80
2023-01-17T11:14:12.743Z,1.08
2023-01-17T11:16:40.727Z,0.60
2023-01-17T11:19:17.458Z,1.15
2023-01-17T11:22:04.840Z,0.95
2023-01-17T11:24:40.685Z,0.90
2023-01-17T11:27:27.889Z,3.25
2023-01-17T11:30:22.081Z,4.13
2023-01-17T11:32:53.004Z,1.25
2023-01-17T11:35:25.585Z,1.17
2023-01-17T11:38:17.936Z,1.25
2023-01-17T11:40:47.451Z,1.42
2023-01-17T11:43:23.184Z,1.05
2023-01-17T11:46:18.773Z,1.02
2023-01-17T11:48:55.754Z,1.17
2023-01-17T11:51:33.827Z,0.80
2023-01-17T11:54:17.459Z,1.60
2023-01-17T11:56:48.367Z,1.40
2023-01-17T11:59:24.920Z,1.50
2023-01-17T12:02:24.293Z,1.60
2023-01-17T12:07:57.376Z,1.15
2023-01-17T12:10:46.377Z,1.50
2023-01-17T12:13:59.124Z,1.08
2023-01-17T12:16:56.177Z,1.48
2023-01-17T12:22:26.917Z,1.17
2023-01-17T12:25:22.945Z,1.63
2023-01-17T12:28:08.715Z,1.33
2023-01-17T12:31:03.280Z,2.88
2023-01-17T12:33:43.672Z,2.15
2023-01-17T12:36:22.497Z,1.35
2023-01-17T12:38:50.115Z,1.30
2023-01-17T12:41:25.107Z,1.52
2023-01-17T12:43:59.481Z,2.10
2023-01-17T12:46:49.134Z,2.63
2023-01-17T12:49:29.198Z,2.17
2023-01-17T12:52:05.022Z,1.60
2023-01-17T12:54:40.412Z,1.70
2023-01-17T12:57:29.611Z,2.88
2023-01-17T13:00:07.632Z,2.10
2023-01-17T13:03:08.916Z,2.17
2023-01-17T13:05:42.606Z,1.67
2023-01-17T13:08:43.386Z,1.20
2023-01-17T13:11:22.323Z,1.20
2023-01-17T13:13:52.703Z,1.75
2023-01-17T13:16:29.513Z,2.45
2023-01-17T13:19:03.326Z,1.92
2023-01-17T13:21:34.131Z,1.92
2023-01-17T13:24:10.384Z,1.90
2023-01-17T13:27:02.666Z,1.80
2023-01-17T13:29:49.459Z,1.87
2023-01-17T13:32:51.815Z,2.05
2023-01-17T13:35:43.827Z,2.10
2023-01-17T13:38:25.551Z,1.63
2023-01-17T13:41:17.208Z,2.47
2023-01-17T13:44:05.934Z,1.90
2023-01-17T13:46:57.290Z,2.70
2023-01-17T13:49:43.139Z,2.33
2023-01-17T13:55:01.150Z,1.60
2023-01-17T14:00:47.504Z,1.55
2023-01-17T14:03:15.142Z,2.20
2023-01-17T14:05:51.724Z,1.42
2023-01-17T14:08:21.914Z,1.70
2023-01-17T14:10:53.397Z,1.80
2023-01-17T14:13:38.597Z,1.75
2023-01-17T14:16:29.706Z,2.05
2023-01-17T14:18:57.429Z,1.98
2023-01-17T14:21:28.818Z,1.50
2023-01-17T14:24:06.262Z,2.20
2023-01-17T14:26:41.802Z,1.92
2023-01-17T14:29:48.875Z,1.98
2023-01-17T14:32:19.182Z,1.70
2023-01-17T14:34:48.834Z,1.65
2023-01-17T14:37:30.073Z,2.90
2023-01-17T14:39:57.519Z,2.65
2023-01-17T14:42:29.211Z,2.22
2023-01-17T14:45:04.156Z,1.50
2023-01-17T14:47:34.925Z,1.38
2023-01-17T14:50:11.171Z,2.08
2023-01-17T14:52:38.676Z,1.83
2023-01-17T14:55:16.764Z,2.20
2023-01-17T14:57:54.650Z,2.58
2023-01-17T15:00:23.392Z,1.85
2023-01-17T15:02:53.459Z,1.90
2023-01-17T15:05:22.843Z,2.70
2023-01-17T15:07:54.121Z,2.78
2023-01-17T15:10:25.121Z,2.38
2023-01-17T15:12:52.919Z,3.55
2023-01-17T15:15:39.640Z,2.75
2023-01-17T15:18:09.559Z,2.55
2023-01-17T15:20:37.994Z,2.45
2023-01-17T15:23:06.043Z,2.60
2023-01-17T15:25:34.320Z,2.60
2023-01-17T15:28:04.554Z,1.67
2023-01-17T15:30:33.003Z,2.17
2023-01-17T15:33:00.319Z,2.10
2023-01-17T15:35:28.402Z,2.00
2023-01-17T15:37:58.210Z,2.40
2023-01-17T15:40:26.643Z,2.30
2023-01-17T15:42:58.201Z,3.88
2023-01-17T15:45:31.716Z,2.05
2023-01-17T15:48:40.502Z,3.38
2023-01-17T15:51:11.074Z,2.10
2023-01-17T15:53:41.990Z,5.47
2023-01-17T15:56:31.954Z,4.32
2023-01-17T15:59:38.999Z,4.00
2023-01-17T16:02:25.125Z,2.20
2023-01-17T16:04:52.671Z,2.25
2023-01-17T16:07:22.084Z,1.90
2023-01-17T16:09:49.975Z,1.85
2023-01-17T16:12:17.221Z,3.33
2023-01-17T16:14:59.609Z,2.50
2023-01-17T16:17:32.700Z,2.05
2023-01-17T16:20:00.089Z,2.20
2023-01-17T16:22:27.444Z,1.90
2023-01-17T16:24:57.150Z,2.35
2023-01-17T16:27:24.445Z,1.90
2023-01-17T16:29:51.683Z,2.22
2023-01-17T16:32:18.858Z,3.40
2023-01-17T16:34:45.968Z,5.38
2023-01-17T16:37:13.107Z,3.95
2023-01-17T16:39:40.299Z,3.00
2023-01-17T16:42:10.827Z,3.28
2023-01-17T16:44:39.375Z,2.92
2023-01-17T16:47:06.673Z,5.00
2023-01-17T16:49:33.820Z,4.07
2023-01-17T16:52:00.970Z,8.43
2023-01-17T16:54:28.232Z,4.50
2023-01-17T16:56:55.411Z,3.90
2023-01-17T16:59:22.643Z,3.15
